createdAt,value
2023-03-18T00:01:39.493Z,11.28
2023-03-18T00:04:06.261Z,11.28
2023-03-18T00:06:32.958Z,11.31
2023-03-18T00:08:59.620Z,11.36
2023-03-18T00:11:26.285Z,11.41
2023-03-18T00:13:52.947Z,11.42
2023-03-18T00:16:19.610Z,11.39
2023-03-18T00:18:46.245Z,11.43
2023-03-18T00:21:12.884Z,11.49
2023-03-18T00:23:39.622Z,11.46
2023-03-18T00:26:08.381Z,11.50
2023-03-18T00:28:35.093Z,11.40
2023-03-18T00:31:06.139Z,11.19
2023-03-18T00:33:32.813Z,11.15
2023-03-18T00:35:59.506Z,11.18
2023-03-18T00:38:26.149Z,11.23
2023-03-18T00:40:52.814Z,11.08
2023-03-18T00:43:20.819Z,11.13
2023-03-18T00:45:47.440Z,11.17
2023-03-18T00:48:14.080Z,11.09
2023-03-18T00:50:40.722Z,11.11
2023-03-18T00:53:07.379Z,11.12
2023-03-18T00:55:34.046Z,11.04
2023-03-18T00:58:00.732Z,11.11
2023-03-18T01:00:27.386Z,11.09
2023-03-18T01:02:54.046Z,11.02
2023-03-18T01:05:20.748Z,10.99
2023-03-18T01:07:47.411Z,10.96
2023-03-18T01:10:14.149Z,10.89
2023-03-18T01:12:40.765Z,10.80
2023-03-18T01:15:10.413Z,10.75
2023-03-18T01:17:37.087Z,10.76
2023-03-18T01:20:03.776Z,10.80
2023-03-18T01:22:30.810Z,10.90
2023-03-18T01:24:57.435Z,10.87
2023-03-18T01:27:24.211Z,10.82
2023-03-18T01:29:50.842Z,10.81
2023-03-18T01:32:17.478Z,10.77
2023-03-18T01:34:59.245Z,10.80
2023-03-18T01:37:28.939Z,10.90
2023-03-18T01:39:55.597Z,10.77
2023-03-18T01:42:22.476Z,10.76
2023-03-18T01:44:49.124Z,10.91
2023-03-18T01:47:15.780Z,10.88
2023-03-18T01:49:47.579Z,10.89
2023-03-18T01:52:22.812Z,10.92
2023-03-18T01:54:54.449Z,10.85
2023-03-18T01:57:21.551Z,10.87
2023-03-18T01:59:48.853Z,10.68
2023-03-18T02:02:15.874Z,10.55
2023-03-18T02:04:44.526Z,10.54
2023-03-18T02:07:41.224Z,10.56
2023-03-18T02:10:11.352Z,10.52
2023-03-18T02:12:40.176Z,10.49
2023-03-18T02:15:09.885Z,10.36
2023-03-18T02:17:39.154Z,10.26
2023-03-18T02:20:05.786Z,10.32
2023-03-18T02:22:34.283Z,10.28
2023-03-18T02:25:49.883Z,10.28
2023-03-18T02:28:21.763Z,10.35
2023-03-18T02:31:00.818Z,10.35
2023-03-18T02:33:31.638Z,10.32
2023-03-18T02:36:02.171Z,10.29
2023-03-18T02:38:28.863Z,10.28
2023-03-18T02:40:55.591Z,10.30
2023-03-18T02:43:27.742Z,10.34
2023-03-18T02:45:57.437Z,10.42
2023-03-18T02:48:26.477Z,10.42
2023-03-18T02:50:53.890Z,10.43
2023-03-18T02:53:20.574Z,10.41
2023-03-18T02:55:47.283Z,10.33
2023-03-18T02:58:13.983Z,10.34
2023-03-18T03:00:40.632Z,10.39
2023-03-18T03:03:07.928Z,10.40
2023-03-18T03:05:34.816Z,10.35
2023-03-18T03:08:01.705Z,10.17
2023-03-18T03:10:28.539Z,10.09
2023-03-18T03:12:55.211Z,10.10
2023-03-18T03:15:22.326Z,10.12
2023-03-18T03:17:48.966Z,10.08
2023-03-18T03:20:15.607Z,9.97
2023-03-18T03:22:42.353Z,9.94
2023-03-18T03:25:10.012Z,9.85
2023-03-18T03:27:36.685Z,9.96
2023-03-18T03:30:06.935Z,10.00
2023-03-18T03:32:33.641Z,9.97
2023-03-18T03:35:00.278Z,9.95
2023-03-18T03:37:26.905Z,9.99
2023-03-18T03:39:53.561Z,9.99
2023-03-18T03:42:20.228Z,10.05
2023-03-18T03:44:46.902Z,10.11
2023-03-18T03:47:13.546Z,10.02
2023-03-18T03:49:40.166Z,9.88
2023-03-18T03:52:06.911Z,9.73
2023-03-18T03:54:33.546Z,9.75
2023-03-18T03:57:00.197Z,9.70
2023-03-18T03:59:26.857Z,9.65
2023-03-18T04:01:53.558Z,9.69
2023-03-18T04:04:20.287Z,9.79
2023-03-18T04:06:46.954Z,9.76
2023-03-18T04:09:13.610Z,9.85
2023-03-18T04:11:40.292Z,9.80
2023-03-18T04:14:07.191Z,9.67
2023-03-18T04:16:37.745Z,9.55
2023-03-18T04:19:04.381Z,9.43
2023-03-18T04:21:31.024Z,9.32
2023-03-18T04:23:57.983Z,9.33
2023-03-18T04:26:24.630Z,9.29
2023-03-18T04:28:51.305Z,9.20
2023-03-18T04:31:18.554Z,9.27
2023-03-18T04:33:45.247Z,9.38
2023-03-18T04:36:11.878Z,9.37
2023-03-18T04:38:38.572Z,9.39
2023-03-18T04:41:05.366Z,9.40
2023-03-18T04:43:32.225Z,9.42
2023-03-18T04:45:58.870Z,9.44
2023-03-18T04:48:25.507Z,9.51
2023-03-18T04:50:52.181Z,9.53
2023-03-18T04:53:18.822Z,9.51
2023-03-18T04:55:45.489Z,9.49
2023-03-18T04:58:12.145Z,9.43
2023-03-18T05:00:38.821Z,9.47
2023-03-18T05:03:05.495Z,9.49
2023-03-18T05:05:32.390Z,9.42
2023-03-18T05:07:59.143Z,9.28
2023-03-18T05:10:25.791Z,9.24
2023-03-18T05:12:52.665Z,9.27
2023-03-18T05:15:19.364Z,9.20
2023-03-18T05:17:46.005Z,9.16
2023-03-18T05:20:12.859Z,9.32
2023-03-18T05:22:39.885Z,9.35
2023-03-18T05:25:07.358Z,9.33
2023-03-18T05:27:34.002Z,9.33
2023-03-18T05:30:00.760Z,9.32
2023-03-18T05:32:27.409Z,9.31
2023-03-18T05:34:54.039Z,9.30
2023-03-18T05:37:20.674Z,9.33
2023-03-18T05:39:47.342Z,9.26
2023-03-18T05:42:13.984Z,9.23
2023-03-18T05:44:40.644Z,9.11
2023-03-18T05:47:08.035Z,9.01
2023-03-18T05:49:34.949Z,8.92
2023-03-18T05:52:01.676Z,8.88
2023-03-18T05:54:28.495Z,8.96
2023-03-18T05:56:55.147Z,9.04
2023-03-18T05:59:22.056Z,9.10
2023-03-18T06:01:48.695Z,9.12
2023-03-18T06:04:15.341Z,9.15
2023-03-18T06:06:41.991Z,9.11
2023-03-18T06:09:08.957Z,9.16
2023-03-18T06:11:35.640Z,8.98
2023-03-18T06:14:02.794Z,8.98
2023-03-18T06:16:29.727Z,8.91
2023-03-18T06:18:56.382Z,8.85
2023-03-18T06:21:23.085Z,8.92
2023-03-18T06:23:49.733Z,8.94
2023-03-18T06:26:16.394Z,8.97
2023-03-18T06:28:43.102Z,9.09
2023-03-18T06:31:09.967Z,9.11
2023-03-18T06:33:36.833Z,9.13
2023-03-18T06:36:03.571Z,9.18
2023-03-18T06:38:30.232Z,9.12
2023-03-18T06:40:57.586Z,9.16
2023-03-18T06:43:24.223Z,9.21
2023-03-18T06:45:50.891Z,9.20
2023-03-18T06:48:17.576Z,9.30
2023-03-18T06:50:44.231Z,9.37
2023-03-18T06:53:10.867Z,9.41
2023-03-18T06:55:37.521Z,9.61
2023-03-18T06:58:04.912Z,9.59
2023-03-18T07:00:32.505Z,9.82
2023-03-18T07:02:59.359Z,9.93
2023-03-18T07:05:26.004Z,10.01
2023-03-18T07:07:52.968Z,10.08
2023-03-18T07:10:21.712Z,10.25
2023-03-18T07:12:48.834Z,10.40
2023-03-18T07:15:15.697Z,10.55
2023-03-18T07:17:42.763Z,10.74
2023-03-18T07:20:10.613Z,10.82
2023-03-18T07:22:37.280Z,10.92
2023-03-18T07:25:04.339Z,11.04
2023-03-18T07:27:30.979Z,11.02
2023-03-18T07:29:57.627Z,11.05
2023-03-18T07:32:24.256Z,11.18
2023-03-18T07:34:50.899Z,11.13
2023-03-18T07:37:17.533Z,11.15
2023-03-18T07:39:44.230Z,11.13
2023-03-18T07:42:11.427Z,11.08
2023-03-18T07:44:38.067Z,11.13
2023-03-18T07:47:04.706Z,11.24
2023-03-18T07:49:31.344Z,11.38
2023-03-18T07:51:58.005Z,11.42
2023-03-18T07:54:24.670Z,11.44
2023-03-18T07:56:51.865Z,11.41
2023-03-18T07:59:18.858Z,11.52
2023-03-18T08:01:45.559Z,11.54
2023-03-18T08:04:12.240Z,11.56
2023-03-18T08:06:38.972Z,11.48
2023-03-18T08:09:06.317Z,11.49
2023-03-18T08:11:33.001Z,11.53
2023-03-18T08:13:59.617Z,11.55
2023-03-18T08:16:26.365Z,11.58
2023-03-18T08:18:53.174Z,11.62
2023-03-18T08:21:19.817Z,11.71
2023-03-18T08:23:46.439Z,11.74
2023-03-18T08:26:13.157Z,11.73
2023-03-18T08:28:39.795Z,11.73
2023-03-18T08:31:06.487Z,11.77
2023-03-18T08:33:33.178Z,11.91
2023-03-18T08:35:59.837Z,12.03
2023-03-18T08:38:26.554Z,12.24
2023-03-18T08:40:53.180Z,12.31
2023-03-18T08:43:19.861Z,12.40
2023-03-18T08:45:46.506Z,12.48
2023-03-18T08:48:13.279Z,12.60
2023-03-18T08:50:39.969Z,12.84
2023-03-18T08:53:06.721Z,12.96
2023-03-18T08:55:35.145Z,13.07
2023-03-18T08:58:03.537Z,13.30
2023-03-18T09:00:30.388Z,13.42
2023-03-18T09:02:57.066Z,13.85
2023-03-18T09:05:23.717Z,15.94
2023-03-18T09:07:50.555Z,17.54
2023-03-18T09:10:17.202Z,18.74
2023-03-18T09:12:44.802Z,20.05
2023-03-18T09:15:12.105Z,20.81
2023-03-18T09:17:53.557Z,20.92
2023-03-18T09:20:25.504Z,20.56
2023-03-18T09:22:52.213Z,20.28
2023-03-18T09:25:19.072Z,19.73
2023-03-18T09:27:45.702Z,19.14
2023-03-18T09:30:12.545Z,18.89
2023-03-18T09:32:39.197Z,18.64
2023-03-18T09:35:06.594Z,18.59
2023-03-18T09:37:33.279Z,18.27
2023-03-18T09:39:59.927Z,17.90
2023-03-18T09:42:44.793Z,17.75
2023-03-18T09:45:31.764Z,17.79
2023-03-18T09:48:12.325Z,17.81
2023-03-18T09:50:57.430Z,17.85
2023-03-18T09:53:39.960Z,17.89
2023-03-18T09:56:07.800Z,17.64
2023-03-18T09:58:46.469Z,17.75
2023-03-18T10:01:13.280Z,17.67
2023-03-18T10:03:43.111Z,17.80
2023-03-18T10:06:16.329Z,17.86
2023-03-18T10:09:06.533Z,17.82
2023-03-18T10:11:51.596Z,17.77
2023-03-18T10:14:36.086Z,17.85
2023-03-18T10:17:15.141Z,17.98
2023-03-18T10:20:01.094Z,18.02
2023-03-18T10:22:44.279Z,18.01
2023-03-18T10:25:31.921Z,17.99
2023-03-18T10:28:16.038Z,18.25
2023-03-18T10:31:08.791Z,18.30
2023-03-18T10:33:41.823Z,18.14
2023-03-18T10:36:23.769Z,17.96
2023-03-18T10:38:51.107Z,17.93
2023-03-18T10:41:23.929Z,17.95
2023-03-18T10:43:52.421Z,18.03
2023-03-18T10:46:19.881Z,18.06
2023-03-18T10:48:48.681Z,18.07
2023-03-18T10:51:29.256Z,18.16
2023-03-18T10:54:00.207Z,18.22
2023-03-18T10:56:26.869Z,18.08
2023-03-18T10:58:53.540Z,17.95
2023-03-18T11:01:22.959Z,17.87
2023-03-18T11:03:51.873Z,17.74
2023-03-18T11:06:24.362Z,17.71
2023-03-18T11:08:51.067Z,17.77
2023-03-18T11:11:29.047Z,17.86
2023-03-18T11:13:56.877Z,17.80
2023-03-18T11:16:26.551Z,17.71
2023-03-18T11:18:53.227Z,17.71
2023-03-18T11:21:19.882Z,17.73
2023-03-18T11:23:55.518Z,17.58
2023-03-18T11:26:22.657Z,17.35
2023-03-18T11:28:49.316Z,17.30
2023-03-18T11:31:18.958Z,17.44
2023-03-18T11:33:45.647Z,17.45
2023-03-18T11:36:23.897Z,17.47
2023-03-18T11:38:57.778Z,17.49
2023-03-18T11:41:25.690Z,17.40
2023-03-18T11:43:59.105Z,17.40
2023-03-18T11:46:28.143Z,17.43
2023-03-18T11:48:54.771Z,17.52
2023-03-18T11:51:35.840Z,17.60
2023-03-18T11:54:46.043Z,17.64
2023-03-18T11:57:21.579Z,17.64
2023-03-18T12:00:03.828Z,17.64
2023-03-18T12:02:39.408Z,17.69
2023-03-18T12:05:43.252Z,17.67
2023-03-18T12:08:15.280Z,17.65
2023-03-18T12:10:51.718Z,17.63
2023-03-18T12:13:36.295Z,17.57
2023-03-18T12:16:10.091Z,17.49
2023-03-18T12:19:10.800Z,17.51
2023-03-18T12:21:46.450Z,17.56
2023-03-18T12:24:24.106Z,17.62
2023-03-18T12:26:53.589Z,17.44
2023-03-18T12:29:35.280Z,17.45
2023-03-18T12:32:24.987Z,17.52
2023-03-18T12:34:56.035Z,17.51
2023-03-18T12:37:31.871Z,17.52
2023-03-18T12:40:00.839Z,17.31
2023-03-18T12:42:32.324Z,17.33
2023-03-18T12:45:03.182Z,17.33
2023-03-18T12:47:37.381Z,17.19
2023-03-18T12:50:13.167Z,17.24
2023-03-18T12:52:50.704Z,17.33
2023-03-18T12:55:23.700Z,17.14
2023-03-18T12:57:50.757Z,17.14
2023-03-18T13:00:21.772Z,17.13
2023-03-18T13:02:49.713Z,17.08
2023-03-18T13:05:32.857Z,17.02
2023-03-18T13:08:18.357Z,17.03
2023-03-18T13:10:45.557Z,17.04
2023-03-18T13:13:12.170Z,17.00
2023-03-18T13:15:41.226Z,17.08
2023-03-18T13:18:37.078Z,17.11
2023-03-18T13:21:03.755Z,17.14
2023-03-18T13:24:04.191Z,17.18
2023-03-18T13:26:58.776Z,17.14
2023-03-18T13:29:47.056Z,17.12
2023-03-18T13:32:30.896Z,16.99
2023-03-18T13:35:03.320Z,16.95
2023-03-18T13:37:43.181Z,16.93
2023-03-18T13:40:36.519Z,16.82
2023-03-18T13:43:03.168Z,16.72
2023-03-18T13:45:37.632Z,16.64
2023-03-18T13:48:12.478Z,16.65
2023-03-18T13:50:40.304Z,16.71
2023-03-18T13:53:21.906Z,16.82
2023-03-18T13:56:06.831Z,16.87
2023-03-18T13:58:43.346Z,16.85
2023-03-18T14:01:14.262Z,16.95
2023-03-18T14:03:43.802Z,16.96
2023-03-18T14:06:10.389Z,17.02
2023-03-18T14:08:39.584Z,16.93
2023-03-18T14:11:15.233Z,16.89
2023-03-18T14:13:41.916Z,16.78
2023-03-18T14:16:15.017Z,16.83
2023-03-18T14:18:41.806Z,16.76
2023-03-18T14:21:27.923Z,16.80
2023-03-18T14:24:11.953Z,16.85
2023-03-18T14:26:38.618Z,16.85
2023-03-18T14:29:05.130Z,16.78
2023-03-18T14:31:40.737Z,16.72
2023-03-18T14:34:13.157Z,16.74
2023-03-18T14:37:04.668Z,16.69
2023-03-18T14:39:37.909Z,16.72
2023-03-18T14:42:15.342Z,16.60
2023-03-18T14:44:46.910Z,16.56
2023-03-18T14:47:39.680Z,16.55
2023-03-18T14:50:13.830Z,16.54
2023-03-18T14:52:41.589Z,16.43
2023-03-18T14:55:21.432Z,16.37
2023-03-18T14:57:48.062Z,16.13
2023-03-18T15:00:16.247Z,16.01
2023-03-18T15:02:43.987Z,15.82
2023-03-18T15:05:13.937Z,15.98
2023-03-18T15:07:40.773Z,16.06
2023-03-18T15:10:10.252Z,16.13
2023-03-18T15:12:36.897Z,16.34
2023-03-18T15:15:07.156Z,16.31
2023-03-18T15:17:33.783Z,16.24
2023-03-18T15:20:00.442Z,16.27
2023-03-18T15:22:29.644Z,16.21
2023-03-18T15:25:01.623Z,16.25
2023-03-18T15:27:30.100Z,16.34
2023-03-18T15:30:00.968Z,16.34
2023-03-18T15:32:42.547Z,16.32
2023-03-18T15:35:19.717Z,16.31
2023-03-18T15:37:47.314Z,16.22
2023-03-18T15:40:25.565Z,16.20
2023-03-18T15:43:16.463Z,16.15
2023-03-18T15:45:48.017Z,16.23
2023-03-18T15:48:22.300Z,16.20
2023-03-18T15:50:53.879Z,16.25
2023-03-18T15:53:43.245Z,16.13
2023-03-18T15:56:16.304Z,15.84
2023-03-18T15:58:43.227Z,15.84
2023-03-18T16:01:09.967Z,15.87
2023-03-18T16:03:36.867Z,15.93
2023-03-18T16:06:03.544Z,15.95
2023-03-18T16:08:30.178Z,16.01
2023-03-18T16:10:57.486Z,15.94
2023-03-18T16:13:25.802Z,15.99
2023-03-18T16:15:52.495Z,15.96
2023-03-18T16:18:20.127Z,15.93
2023-03-18T16:20:46.770Z,15.90
2023-03-18T16:23:14.441Z,15.88
2023-03-18T16:25:43.095Z,15.91
2023-03-18T16:28:18.435Z,15.87
2023-03-18T16:30:45.095Z,15.91
2023-03-18T16:33:17.551Z,15.93
2023-03-18T16:35:44.349Z,15.94
2023-03-18T16:38:12.823Z,15.86
2023-03-18T16:40:39.475Z,15.92
2023-03-18T16:43:19.868Z,15.84
2023-03-18T16:45:46.500Z,15.91
2023-03-18T16:48:15.189Z,15.92
2023-03-18T16:50:41.930Z,15.88
2023-03-18T16:53:20.133Z,15.85
2023-03-18T16:55:48.187Z,15.83
2023-03-18T16:58:16.726Z,15.80
2023-03-18T17:00:44.137Z,15.65
2023-03-18T17:03:10.749Z,15.65
2023-03-18T17:05:37.358Z,15.61
2023-03-18T17:08:03.980Z,15.52
2023-03-18T17:10:30.642Z,15.40
2023-03-18T17:13:01.858Z,15.49
2023-03-18T17:15:35.859Z,15.40
2023-03-18T17:18:06.299Z,15.33
2023-03-18T17:20:33.334Z,15.34
2023-03-18T17:23:03.304Z,15.29
2023-03-18T17:25:30.049Z,15.29
2023-03-18T17:28:04.616Z,15.27
2023-03-18T17:30:39.349Z,15.30
2023-03-18T17:33:20.640Z,15.23
2023-03-18T17:35:50.618Z,15.22
2023-03-18T17:38:17.399Z,15.14
2023-03-18T17:40:44.058Z,15.11
2023-03-18T17:43:18.382Z,15.10
2023-03-18T17:45:45.016Z,15.05
2023-03-18T17:48:21.692Z,14.99
2023-03-18T17:50:50.402Z,14.97
2023-03-18T17:53:29.550Z,15.11
2023-03-18T17:55:56.171Z,15.08
2023-03-18T17:58:24.730Z,15.02
2023-03-18T18:00:51.455Z,14.98
2023-03-18T18:03:21.063Z,14.97
2023-03-18T18:05:48.266Z,14.93
2023-03-18T18:08:18.058Z,14.87
2023-03-18T18:10:45.196Z,14.90
2023-03-18T18:13:16.927Z,14.79
2023-03-18T18:15:43.996Z,14.88
2023-03-18T18:18:15.575Z,14.75
2023-03-18T18:20:42.728Z,14.70
2023-03-18T18:23:10.435Z,14.53
2023-03-18T18:25:37.070Z,14.46
2023-03-18T18:28:09.535Z,14.44
2023-03-18T18:30:36.241Z,14.43
2023-03-18T18:33:03.036Z,14.36
2023-03-18T18:35:29.738Z,14.33
2023-03-18T18:37:56.400Z,14.35
2023-03-18T18:40:23.192Z,14.27
2023-03-18T18:42:49.946Z,14.17
2023-03-18T18:45:18.825Z,14.11
2023-03-18T18:47:45.530Z,14.21
2023-03-18T18:50:19.648Z,14.04
2023-03-18T18:52:46.537Z,13.91
2023-03-18T18:55:13.171Z,13.85
2023-03-18T18:57:41.400Z,13.85
2023-03-18T19:00:16.143Z,13.84
2023-03-18T19:02:42.884Z,13.84
2023-03-18T19:05:09.614Z,13.87
2023-03-18T19:07:36.922Z,13.91
2023-03-18T19:10:04.376Z,13.93
2023-03-18T19:12:31.064Z,13.90
2023-03-18T19:14:57.760Z,13.92
2023-03-18T19:17:24.506Z,13.96
2023-03-18T19:19:51.252Z,13.93
2023-03-18T19:22:19.160Z,13.92
2023-03-18T19:24:45.849Z,13.96
2023-03-18T19:27:29.057Z,13.99
2023-03-18T19:29:57.464Z,13.94
2023-03-18T19:32:24.185Z,13.89
2023-03-18T19:34:51.332Z,13.82
2023-03-18T19:37:21.152Z,13.83
2023-03-18T19:39:47.832Z,13.81
2023-03-18T19:42:18.353Z,13.81
2023-03-18T19:44:45.150Z,13.86
2023-03-18T19:47:25.469Z,13.81
2023-03-18T19:49:52.095Z,13.80
2023-03-18T19:52:19.681Z,13.80
2023-03-18T19:54:47.371Z,13.82
2023-03-18T19:57:31.745Z,13.99
2023-03-18T19:59:58.674Z,13.92
2023-03-18T20:02:30.002Z,13.81
2023-03-18T20:04:58.038Z,13.77
2023-03-18T20:07:28.687Z,13.71
2023-03-18T20:09:55.363Z,13.69
2023-03-18T20:12:22.001Z,13.69
2023-03-18T20:14:48.665Z,13.63
2023-03-18T20:17:39.260Z,13.66
2023-03-18T20:20:07.329Z,13.70
2023-03-18T20:22:38.658Z,13.66
2023-03-18T20:25:06.575Z,13.68
2023-03-18T20:27:33.254Z,13.65
2023-03-18T20:29:59.999Z,13.66
2023-03-18T20:32:26.706Z,13.64
2023-03-18T20:34:53.826Z,13.74
2023-03-18T20:37:27.267Z,13.75
2023-03-18T20:39:54.134Z,13.66
2023-03-18T20:42:20.815Z,13.69
2023-03-18T20:44:47.461Z,13.65
2023-03-18T20:47:14.078Z,13.65
2023-03-18T20:49:41.295Z,13.63
2023-03-18T20:52:27.752Z,13.68
2023-03-18T20:54:54.665Z,13.73
2023-03-18T20:57:21.420Z,13.70
2023-03-18T20:59:48.136Z,13.72
2023-03-18T21:02:35.358Z,13.67
2023-03-18T21:05:02.188Z,13.66
2023-03-18T21:07:28.902Z,13.56
2023-03-18T21:09:55.558Z,13.55
2023-03-18T21:12:22.182Z,13.55
2023-03-18T21:14:49.114Z,13.46
2023-03-18T21:17:19.785Z,13.46
2023-03-18T21:19:49.322Z,13.41
2023-03-18T21:22:19.850Z,13.40
2023-03-18T21:24:46.488Z,13.36
2023-03-18T21:27:26.007Z,13.35
2023-03-18T21:29:53.833Z,13.42
2023-03-18T21:32:22.998Z,13.45
2023-03-18T21:34:50.278Z,13.45
2023-03-18T21:37:17.537Z,13.45
2023-03-18T21:39:44.541Z,13.46
2023-03-18T21:42:31.606Z,13.43
2023-03-18T21:44:58.380Z,13.45
2023-03-18T21:47:25.576Z,13.36
2023-03-18T21:49:52.229Z,13.30
2023-03-18T21:52:39.240Z,13.28
2023-03-18T21:55:06.470Z,13.24
2023-03-18T21:57:33.227Z,13.34
2023-03-18T21:59:59.893Z,13.34
2023-03-18T22:02:36.710Z,13.36
2023-03-18T22:05:17.640Z,13.36
2023-03-18T22:07:44.676Z,13.36
2023-03-18T22:10:14.946Z,13.35
2023-03-18T22:12:41.646Z,13.22
2023-03-18T22:15:38.085Z,13.21
2023-03-18T22:18:05.228Z,13.25
2023-03-18T22:20:31.984Z,13.22
2023-03-18T22:22:58.641Z,13.29
2023-03-18T22:25:33.443Z,13.32
2023-03-18T22:28:00.380Z,13.37
2023-03-18T22:30:28.111Z,13.31
2023-03-18T22:32:54.836Z,13.19
2023-03-18T22:35:23.264Z,13.12
2023-03-18T22:37:50.047Z,13.13
2023-03-18T22:40:30.015Z,13.20
2023-03-18T22:42:58.071Z,13.19
2023-03-18T22:45:26.375Z,13.19
2023-03-18T22:47:54.299Z,13.24
2023-03-18T22:50:21.010Z,13.27
2023-03-18T22:52:51.213Z,13.24
2023-03-18T22:55:21.255Z,13.17
2023-03-18T22:57:48.577Z,13.21
2023-03-18T23:00:25.390Z,13.25
2023-03-18T23:02:53.001Z,13.38
2023-03-18T23:05:23.432Z,13.38
2023-03-18T23:07:54.781Z,13.37
2023-03-18T23:10:21.421Z,13.47
2023-03-18T23:12:48.164Z,13.45
2023-03-18T23:15:19.477Z,13.46
2023-03-18T23:17:46.129Z,13.44
2023-03-18T23:20:13.719Z,13.36
2023-03-18T23:22:40.604Z,13.36
2023-03-18T23:25:07.530Z,13.33
2023-03-18T23:27:34.239Z,13.32
2023-03-18T23:30:00.866Z,13.32
2023-03-18T23:32:27.477Z,13.20
2023-03-18T23:34:54.102Z,13.17
2023-03-18T23:37:20.732Z,13.13
2023-03-18T23:39:47.359Z,13.22
2023-03-18T23:42:14.376Z,13.27
2023-03-18T23:44:41.014Z,13.30
2023-03-18T23:47:07.783Z,13.31
2023-03-18T23:49:34.420Z,13.36
2023-03-18T23:52:08.899Z,13.45
2023-03-18T23:54:37.917Z,13.40
2023-03-18T23:57:04.668Z,13.42
2023-03-18T23:59:31.304Z,13.40
